Flight Track Log - Related Links

Times and Time Zones

All times are in EDT time to prevent confusion due to time zone crossing. See the UAL3841 flight status page for this flight to view local times or setup timezone preferences in your user account.


Time Position Orientation Groundspeed Altitude Reporting Facility
EDT Latitude Longitude Course Direction KTS MPH feet Rate Location/Type
Mon 07:36:34 PM 29.9550 -95.3394 35° Northeast 161 185 800  Level Houston Center
Mon 07:37:29 PM 29.9700 -95.2967 68° East 210 242 1,900 1,333 Climbing Houston Center
Mon 07:38:04 PM 30.0058 -95.2947 North 230 265 2,800 1,770 Climbing Houston Center
Mon 07:38:30 PM 30.0369 -95.2933 North 239 275 3,700 1,645 Climbing Houston Center
Mon 07:39:06 PM 30.0686 -95.2711 31° Northeast 241 277 4,500 1,469 Climbing Houston Center
Mon 07:40:00 PM 30.3097 -95.0719 33° Northeast  Level FlightAware Approximate
Mon 07:40:08 PM 30.1311 -95.2222 34° Northeast 263 303 6,100  Level Houston Center
Mon 07:41:00 PM 30.3919 -95.0065 35° Northeast  Level FlightAware Approximate
Mon 07:41:10 PM 30.1956 -95.1722 34° Northeast 273 314 8,100  Level Houston Center
Mon 07:42:11 PM 30.2589 -95.1214 35° Northeast 275 316 9,800 1,268 Climbing Houston Center
Mon 07:43:13 PM 30.3264 -95.0703 33° Northeast 283 326 10,700 774 Climbing Houston Center
Mon 07:44:15 PM 30.4172 -94.9992 34° Northeast 325 374 11,400 871 Climbing Houston Center
Mon 07:45:17 PM 30.4978 -94.9350 34° Northeast 339 390 12,500 1,024 Climbing Houston Center
Mon 07:46:18 PM 30.5783 -94.8736 33° Northeast 342 394 13,500 976 Climbing Houston Center
Mon 07:47:20 PM 30.6586 -94.8119 33° Northeast 344 396 14,500 919 Climbing Houston Center
Mon 07:48:22 PM 30.7394 -94.7489 34° Northeast 346 398 15,400 829 Climbing Houston Center
Mon 07:49:23 PM 30.8200 -94.6864 34° Northeast 348 400 16,200 732 Climbing Houston Center
Mon 07:50:25 PM 30.9031 -94.6222 34° Northeast 355 409 16,900 629 Climbing Houston Center
Mon 07:51:27 PM 31.0033 -94.5444 34° Northeast 359 413 17,500 537 Climbing Houston Center
Mon 07:52:28 PM 31.0875 -94.4794 33° Northeast 363 418 18,000 537 Climbing Houston Center
Mon 07:53:30 PM 31.1725 -94.4125 34° Northeast 366 421 18,600 532 Climbing Houston Center
Mon 07:54:32 PM 31.2592 -94.3450 34° Northeast 371 427 19,100 532 Climbing Houston Center
Mon 07:55:34 PM 31.3458 -94.2778 34° Northeast 373 429 19,700 537 Climbing Houston Center
Mon 07:56:35 PM 31.4369 -94.2083 33° Northeast 384 442 20,200 537 Climbing Houston Center
Mon 07:57:37 PM 31.5447 -94.1231 34° Northeast 388 447 20,800 484 Climbing Houston Center
Mon 07:58:39 PM 31.6347 -94.0511 34° Northeast 389 448 21,200 585 Climbing Houston Center
Mon 07:59:40 PM 31.7244 -93.9817 33° Northeast 392 451 22,000 780 Climbing Fort Worth Center
Mon 08:00:42 PM 31.8128 -93.9078 35° Northeast 390 449 22,800 726 Climbing Fort Worth Center
Mon 08:01:44 PM 31.8958 -93.8325 38° Northeast 382 440 23,500 677 Climbing Fort Worth Center
Mon 08:02:46 PM 31.9806 -93.7519 39° Northeast 384 442 24,200 677 Climbing Fort Worth Center
Mon 08:03:48 PM 32.0636 -93.6792 37° Northeast 378 435 24,900 726 Climbing Fort Worth Center
Mon 08:04:50 PM 32.1619 -93.5881 38° Northeast 375 432 25,700 726 Climbing Fort Worth Center
Mon 08:05:52 PM 32.2361 -93.5178 39° Northeast 375 432 26,400 677 Climbing Fort Worth Center
Mon 08:06:54 PM 32.3186 -93.4422 38° Northeast 375 432 27,100 871 Climbing Fort Worth Center
Mon 08:07:56 PM 32.4172 -93.3489 39° Northeast 378 435 28,200 919 Climbing Fort Worth Center
Mon 08:08:58 PM 32.4972 -93.2747 38° Northeast 372 428 29,000 780 Climbing Fort Worth Center
Mon 08:09:59 PM 32.5772 -93.2011 38° Northeast 370 426 29,800 829 Climbing Fort Worth Center
Mon 08:11:01 PM 32.6575 -93.1256 38° Northeast 370 426 30,700 919 Climbing Fort Worth Center
Mon 08:12:03 PM 32.7353 -93.0531 38° Northeast 360 414 31,700 871 Climbing Fort Worth Center
Mon 08:13:05 PM 32.8142 -92.9789 38° Northeast 360 414 32,500 919 Climbing Fort Worth Center
Mon 08:14:07 PM 32.9111 -92.8869 39° Northeast 363 418 33,600 919 Climbing Fort Worth Center
Mon 08:15:09 PM 32.9903 -92.8158 37° Northeast 367 422 34,400 629 Climbing Fort Worth Center
Mon 08:16:11 PM 33.0550 -92.7236 50° Northeast 368 423 34,900 288 Climbing Fort Worth Center
Mon 08:17:14 PM 33.1147 -92.6178 56° Northeast 378 435 35,000 48 Climbing Fort Worth Center
Mon 08:18:16 PM 33.1767 -92.5075 56° Northeast 393 452 35,000  Level Fort Worth Center
Mon 08:19:18 PM 33.2558 -92.3703 55° Northeast 413 475 35,000  Level Fort Worth Center
Mon 08:20:20 PM 33.3217 -92.2525 56° Northeast 422 486 35,000  Level Fort Worth Center
Mon 08:21:22 PM 33.3864 -92.1342 57° Northeast 423 487 35,000  Level Fort Worth Center
Mon 08:22:24 PM 33.4528 -92.0175 56° Northeast 423 487 35,000  Level Fort Worth Center
Mon 08:23:26 PM 33.5172 -91.9003 57° Northeast 423 487 35,000  Level Fort Worth Center
Mon 08:24:28 PM 33.5828 -91.7847 56° Northeast 423 487 35,000  Level Fort Worth Center
Mon 08:25:30 PM 33.6589 -91.6428 57° Northeast 422 486 35,000  Level Fort Worth Center
Mon 08:26:32 PM 33.7222 -91.5269 57° Northeast 420 483 35,000  Level Fort Worth Center
Mon 08:27:34 PM 33.7858 -91.4111 57° Northeast 419 482 35,000  Level Fort Worth Center
Mon 08:28:37 PM 33.8503 -91.2939 56° Northeast 419 482 35,000  Level Fort Worth Center
Mon 08:29:39 PM 33.9144 -91.1772 56° Northeast 419 482 35,000  Level Fort Worth Center
Mon 08:30:41 PM 33.9861 -91.0483 56° Northeast 419 482 35,000  Level Fort Worth Center
Mon 08:32:04 PM 34.0742 -90.8875 57° Northeast 420 483 35,000  Level Memphis Center
Mon 08:33:06 PM 34.1394 -90.7689 56° Northeast 420 483 35,000  Level Memphis Center
Mon 08:34:07 PM 34.2019 -90.6511 57° Northeast 420 483 35,000  Level Memphis Center
Mon 08:35:09 PM 34.2658 -90.5331 57° Northeast 420 483 35,000  Level Memphis Center
Mon 08:36:10 PM 34.3419 -90.3903 57° Northeast 420 483 35,000  Level Memphis Center
Mon 08:37:12 PM 34.4056 -90.2714 57° Northeast 421 484 35,000  Level Memphis Center
Mon 08:38:14 PM 34.4686 -90.1531 57° Northeast 421 484 35,000  Level Memphis Center
Mon 08:39:15 PM 34.5322 -90.0336 57° Northeast 421 484 35,000  Level Memphis Center
Mon 08:40:17 PM 34.5936 -89.9147 58° Northeast 421 484 35,000  Level Memphis Center
Mon 08:41:19 PM 34.6544 -89.7956 58° Northeast 421 484 35,000  Level Memphis Center
Mon 08:42:20 PM 34.7297 -89.6519 57° Northeast 425 489 35,000  Level Memphis Center
Mon 08:43:22 PM 34.7911 -89.5317 58° Northeast 427 491 35,000  Level Memphis Center
Mon 08:44:24 PM 34.8531 -89.4186 56° Northeast 414 476 35,000  Level Memphis Center
Mon 08:45:25 PM 34.9125 -89.3025 58° Northeast 408 470 35,000  Level Memphis Center
Mon 08:46:27 PM 34.9733 -89.1869 57° Northeast 408 470 35,000 -146 Level Memphis Center
Mon 08:47:28 PM 35.0456 -89.0461 58° Northeast 408 470 34,700 -585 Descending Memphis Center
Mon 08:48:30 PM 35.1069 -88.9278 58° Northeast 409 471 33,800 -871 Descending Memphis Center
Mon 08:49:32 PM 35.1675 -88.8089 58° Northeast 410 472 32,900 -927 Descending Memphis Center
Mon 08:50:33 PM 35.2281 -88.6897 58° Northeast 412 474 31,900 -927 Descending Memphis Center
Mon 08:51:35 PM 35.2883 -88.5703 58° Northeast 414 476 31,000 -780 Descending Memphis Center
Mon 08:52:36 PM 35.3464 -88.4575 58° Northeast 414 476 30,300 -634 Descending Memphis Center
Mon 08:53:38 PM 35.4142 -88.3219 58° Northeast 415 478 29,700 -537 Descending Memphis Center
Mon 08:54:39 PM 35.4753 -88.2014 58° Northeast 415 478 29,200 -585 Descending Memphis Center
Mon 08:55:41 PM 35.5375 -88.0778 58° Northeast 415 478 28,500 -1,366 Descending Memphis Center
Mon 08:56:42 PM 35.6019 -87.9478 59° Northeast 416 479 26,400 -2,098 Descending Memphis Center
Mon 08:57:44 PM 35.6603 -87.8311 58° Northeast 416 479 24,200 -2,439 Descending Memphis Center
Mon 08:58:45 PM 35.7300 -87.6892 59° Northeast 416 479 21,400 -2,488 Descending Memphis Center
Mon 08:59:47 PM 35.7889 -87.5714 58° Northeast 406 467 19,100 -2,146 Descending Memphis Center
Mon 09:00:48 PM 35.8403 -87.4500 62° Northeast 399 459 17,000 -2,195 Descending Memphis Center
Mon 09:01:50 PM 35.8825 -87.3283 67° East 389 448 14,600 -2,293 Descending Memphis Center
Mon 09:02:51 PM 35.9269 -87.2100 65° Northeast 383 441 12,300 -1,805 Descending Memphis Center
Mon 09:03:53 PM 35.9678 -87.1017 65° Northeast 358 412 10,900 -1,268 Descending Memphis Center
Mon 09:04:54 PM 36.0056 -87.0106 63° Northeast 312 359 9,700 -1,317 Descending Memphis Center
Mon 09:05:56 PM 36.0397 -86.9289 63° Northeast 279 321 8,200 -1,415 Descending Memphis Center
Mon 09:06:57 PM 36.0708 -86.8519 63° Northeast 257 296 6,800 -1,317 Descending Memphis Center
Mon 09:07:59 PM 36.1158 -86.7961 45° Northeast 240 276 5,500 -976 Descending Memphis Center
Mon 09:09:00 PM 36.1889 -86.7672 18° North 237 273 4,800 -878 Descending Memphis Center
Mon 09:10:02 PM 36.2475 -86.7439 18° North 226 260 3,700 -1,122 Descending Memphis Center
Mon 09:11:03 PM 36.2681 -86.6939 63° Northeast 213 245 2,500 -878 Descending Memphis Center
Mon 09:12:05 PM 36.2222 -86.6600 149° Southeast 199 229 1,900 -537 Descending Memphis Center
Mon 09:13:06 PM 36.1792 -86.6619 182° South 163 188 1,400 -585 Descending Memphis Center
Mon 09:14:08 PM 36.1408 -86.6778 198° South 150 173 700 -677 Descending Memphis Center
Mon 09:16:00 PM 36.1245 -86.6782 160° South  Level Estimated

Login

Don't have an account? Register now (free) for customized features, flight alerts, and more!